sensor_id;sensor_type;location;lat;lon;timestamp;P1;durP1;ratioP1;P2;durP2;ratioP2
19396;SDS011;9834;48.076;11.878;2023-07-02T00:02:13;2.87;;;2.60;;
19396;SDS011;9834;48.076;11.878;2023-07-02T00:04:41;3.33;;;2.27;;
19396;SDS011;9834;48.076;11.878;2023-07-02T00:07:08;2.03;;;1.90;;
19396;SDS011;9834;48.076;11.878;2023-07-02T00:09:36;5.33;;;2.87;;
19396;SDS011;9834;48.076;11.878;2023-07-02T00:12:03;1.90;;;1.80;;
19396;SDS011;9834;48.076;11.878;2023-07-02T00:14:30;4.63;;;2.67;;
19396;SDS011;9834;48.076;11.878;2023-07-02T00:16:57;1.73;;;1.63;;
19396;SDS011;9834;48.076;11.878;2023-07-02T00:19:25;2.37;;;2.17;;
19396;SDS011;9834;48.076;11.878;2023-07-02T00:21:52;3.90;;;2.70;;
19396;SDS011;9834;48.076;11.878;2023-07-02T00:24:20;2.83;;;2.20;;
19396;SDS011;9834;48.076;11.878;2023-07-02T00:26:48;2.63;;;2.43;;
19396;SDS011;9834;48.076;11.878;2023-07-02T00:29:15;2.10;;;1.93;;
19396;SDS011;9834;48.076;11.878;2023-07-02T00:31:42;2.20;;;2.00;;
19396;SDS011;9834;48.076;11.878;2023-07-02T00:34:09;2.00;;;1.90;;
19396;SDS011;9834;48.076;11.878;2023-07-02T00:36:35;2.70;;;2.50;;
19396;SDS011;9834;48.076;11.878;2023-07-02T00:39:02;2.07;;;1.63;;
19396;SDS011;9834;48.076;11.878;2023-07-02T00:41:29;2.07;;;1.90;;
19396;SDS011;9834;48.076;11.878;2023-07-02T00:43:58;2.03;;;1.93;;
19396;SDS011;9834;48.076;11.878;2023-07-02T00:46:25;6.30;;;2.67;;
19396;SDS011;9834;48.076;11.878;2023-07-02T00:48:52;5.90;;;2.47;;
19396;SDS011;9834;48.076;11.878;2023-07-02T00:51:21;2.57;;;2.20;;
19396;SDS011;9834;48.076;11.878;2023-07-02T00:53:50;2.30;;;2.10;;
19396;SDS011;9834;48.076;11.878;2023-07-02T00:56:18;2.13;;;1.93;;
19396;SDS011;9834;48.076;11.878;2023-07-02T00:58:45;2.60;;;2.37;;
19396;SDS011;9834;48.076;11.878;2023-07-02T01:01:17;2.83;;;2.37;;
19396;SDS011;9834;48.076;11.878;2023-07-02T01:03:53;2.40;;;2.20;;
19396;SDS011;9834;48.076;11.878;2023-07-02T01:06:22;2.33;;;2.13;;
19396;SDS011;9834;48.076;11.878;2023-07-02T01:08:56;3.47;;;3.00;;
19396;SDS011;9834;48.076;11.878;2023-07-02T01:11:25;6.57;;;2.17;;
19396;SDS011;9834;48.076;11.878;2023-07-02T01:13:55;2.83;;;2.53;;
19396;SDS011;9834;48.076;11.878;2023-07-02T01:16:27;3.20;;;2.60;;
19396;SDS011;9834;48.076;11.878;2023-07-02T01:18:58;3.83;;;2.50;;
19396;SDS011;9834;48.076;11.878;2023-07-02T01:21:30;2.27;;;2.07;;
19396;SDS011;9834;48.076;11.878;2023-07-02T01:23:58;4.90;;;2.53;;
19396;SDS011;9834;48.076;11.878;2023-07-02T01:26:27;1.80;;;1.70;;
19396;SDS011;9834;48.076;11.878;2023-07-02T01:28:56;2.30;;;1.97;;
19396;SDS011;9834;48.076;11.878;2023-07-02T01:31:23;2.27;;;2.07;;
19396;SDS011;9834;48.076;11.878;2023-07-02T01:33:50;2.17;;;1.97;;
19396;SDS011;9834;48.076;11.878;2023-07-02T01:36:17;2.53;;;2.23;;
19396;SDS011;9834;48.076;11.878;2023-07-02T01:38:45;2.40;;;2.20;;
19396;SDS011;9834;48.076;11.878;2023-07-02T01:41:12;2.97;;;2.33;;
19396;SDS011;9834;48.076;11.878;2023-07-02T01:43:39;4.33;;;2.27;;
19396;SDS011;9834;48.076;11.878;2023-07-02T01:46:06;3.73;;;2.00;;
19396;SDS011;9834;48.076;11.878;2023-07-02T01:48:33;2.10;;;1.90;;
19396;SDS011;9834;48.076;11.878;2023-07-02T01:50:59;6.80;;;2.03;;
19396;SDS011;9834;48.076;11.878;2023-07-02T01:53:26;2.10;;;1.90;;
19396;SDS011;9834;48.076;11.878;2023-07-02T01:55:55;2.40;;;2.20;;
19396;SDS011;9834;48.076;11.878;2023-07-02T01:58:21;3.57;;;1.73;;
19396;SDS011;9834;48.076;11.878;2023-07-02T02:00:48;2.00;;;1.90;;
19396;SDS011;9834;48.076;11.878;2023-07-02T02:03:15;2.00;;;1.80;;
19396;SDS011;9834;48.076;11.878;2023-07-02T02:05:42;2.13;;;1.93;;
19396;SDS011;9834;48.076;11.878;2023-07-02T02:08:09;1.50;;;1.40;;
19396;SDS011;9834;48.076;11.878;2023-07-02T02:10:36;3.03;;;1.57;;
19396;SDS011;9834;48.076;11.878;2023-07-02T02:13:04;1.60;;;1.50;;
19396;SDS011;9834;48.076;11.878;2023-07-02T02:15:31;1.47;;;1.37;;
19396;SDS011;9834;48.076;11.878;2023-07-02T02:17:58;1.87;;;1.77;;
19396;SDS011;9834;48.076;11.878;2023-07-02T02:20:25;1.97;;;1.70;;
19396;SDS011;9834;48.076;11.878;2023-07-02T02:22:51;1.07;;;1.07;;
19396;SDS011;9834;48.076;11.878;2023-07-02T02:25:18;1.23;;;1.20;;
19396;SDS011;9834;48.076;11.878;2023-07-02T02:27:45;2.57;;;1.80;;
19396;SDS011;9834;48.076;11.878;2023-07-02T02:30:14;2.03;;;1.67;;
19396;SDS011;9834;48.076;11.878;2023-07-02T02:32:41;1.53;;;1.43;;
19396;SDS011;9834;48.076;11.878;2023-07-02T02:35:08;1.40;;;1.30;;
19396;SDS011;9834;48.076;11.878;2023-07-02T02:37:36;1.40;;;1.27;;
19396;SDS011;9834;48.076;11.878;2023-07-02T02:40:05;3.13;;;1.50;;
19396;SDS011;9834;48.076;11.878;2023-07-02T02:42:34;1.30;;;1.20;;
19396;SDS011;9834;48.076;11.878;2023-07-02T02:45:01;1.10;;;1.00;;
19396;SDS011;9834;48.076;11.878;2023-07-02T02:47:29;1.30;;;1.20;;
19396;SDS011;9834;48.076;11.878;2023-07-02T02:49:56;1.23;;;1.13;;
19396;SDS011;9834;48.076;11.878;2023-07-02T02:52:23;2.90;;;1.83;;
19396;SDS011;9834;48.076;11.878;2023-07-02T02:54:50;1.53;;;1.43;;
19396;SDS011;9834;48.076;11.878;2023-07-02T02:57:18;2.63;;;1.37;;
19396;SDS011;9834;48.076;11.878;2023-07-02T02:59:44;1.40;;;1.30;;
19396;SDS011;9834;48.076;11.878;2023-07-02T03:02:12;1.53;;;1.43;;
19396;SDS011;9834;48.076;11.878;2023-07-02T03:04:40;0.87;;;0.87;;
19396;SDS011;9834;48.076;11.878;2023-07-02T03:07:10;1.40;;;1.30;;
19396;SDS011;9834;48.076;11.878;2023-07-02T03:09:37;1.83;;;1.73;;
19396;SDS011;9834;48.076;11.878;2023-07-02T03:12:04;2.73;;;1.30;;
19396;SDS011;9834;48.076;11.878;2023-07-02T03:14:32;2.07;;;1.20;;
19396;SDS011;9834;48.076;11.878;2023-07-02T03:16:58;1.50;;;1.40;;
19396;SDS011;9834;48.076;11.878;2023-07-02T03:19:25;1.60;;;1.50;;
19396;SDS011;9834;48.076;11.878;2023-07-02T03:21:54;1.53;;;1.43;;
19396;SDS011;9834;48.076;11.878;2023-07-02T03:24:21;1.77;;;1.43;;
19396;SDS011;9834;48.076;11.878;2023-07-02T03:26:47;1.53;;;1.13;;
19396;SDS011;9834;48.076;11.878;2023-07-02T03:29:14;2.77;;;1.43;;
19396;SDS011;9834;48.076;11.878;2023-07-02T03:31:41;6.37;;;1.27;;
19396;SDS011;9834;48.076;11.878;2023-07-02T03:34:08;1.60;;;1.40;;
19396;SDS011;9834;48.076;11.878;2023-07-02T03:36:37;1.93;;;1.83;;
19396;SDS011;9834;48.076;11.878;2023-07-02T03:39:05;1.80;;;1.53;;
19396;SDS011;9834;48.076;11.878;2023-07-02T03:41:32;1.30;;;1.20;;
19396;SDS011;9834;48.076;11.878;2023-07-02T03:43:59;1.53;;;1.43;;
19396;SDS011;9834;48.076;11.878;2023-07-02T03:46:26;1.70;;;1.60;;
19396;SDS011;9834;48.076;11.878;2023-07-02T03:48:53;1.60;;;1.50;;
19396;SDS011;9834;48.076;11.878;2023-07-02T03:51:20;1.60;;;1.43;;
19396;SDS011;9834;48.076;11.878;2023-07-02T03:53:47;2.53;;;1.87;;
19396;SDS011;9834;48.076;11.878;2023-07-02T03:56:15;3.20;;;2.33;;
19396;SDS011;9834;48.076;11.878;2023-07-02T03:58:42;1.90;;;1.77;;
19396;SDS011;9834;48.076;11.878;2023-07-02T04:01:09;2.17;;;1.83;;
19396;SDS011;9834;48.076;11.878;2023-07-02T04:03:36;1.70;;;1.60;;
19396;SDS011;9834;48.076;11.878;2023-07-02T04:06:03;2.57;;;2.23;;
19396;SDS011;9834;48.076;11.878;2023-07-02T04:08:31;2.07;;;1.87;;
19396;SDS011;9834;48.076;11.878;2023-07-02T04:10:59;3.50;;;2.27;;
19396;SDS011;9834;48.076;11.878;2023-07-02T04:13:27;1.87;;;1.77;;
19396;SDS011;9834;48.076;11.878;2023-07-02T04:15:54;4.33;;;2.83;;
19396;SDS011;9834;48.076;11.878;2023-07-02T04:18:21;2.27;;;2.07;;
19396;SDS011;9834;48.076;11.878;2023-07-02T04:20:48;3.43;;;2.27;;
19396;SDS011;9834;48.076;11.878;2023-07-02T04:23:14;5.50;;;2.43;;
19396;SDS011;9834;48.076;11.878;2023-07-02T04:25:41;2.50;;;2.30;;
19396;SDS011;9834;48.076;11.878;2023-07-02T04:28:08;3.23;;;2.23;;
19396;SDS011;9834;48.076;11.878;2023-07-02T04:30:37;2.73;;;2.33;;
19396;SDS011;9834;48.076;11.878;2023-07-02T04:33:04;3.00;;;2.33;;
19396;SDS011;9834;48.076;11.878;2023-07-02T04:35:31;2.80;;;2.30;;
19396;SDS011;9834;48.076;11.878;2023-07-02T04:37:59;3.47;;;2.33;;
19396;SDS011;9834;48.076;11.878;2023-07-02T04:40:26;2.23;;;2.03;;
19396;SDS011;9834;48.076;11.878;2023-07-02T04:42:53;2.67;;;2.47;;
19396;SDS011;9834;48.076;11.878;2023-07-02T04:45:22;2.47;;;2.27;;
19396;SDS011;9834;48.076;11.878;2023-07-02T04:47:51;4.17;;;2.90;;
19396;SDS011;9834;48.076;11.878;2023-07-02T04:50:18;3.03;;;2.20;;
19396;SDS011;9834;48.076;11.878;2023-07-02T04:52:45;3.00;;;2.40;;
19396;SDS011;9834;48.076;11.878;2023-07-02T04:55:13;2.90;;;1.90;;
19396;SDS011;9834;48.076;11.878;2023-07-02T04:57:40;3.57;;;1.83;;
19396;SDS011;9834;48.076;11.878;2023-07-02T05:00:09;2.73;;;2.53;;
19396;SDS011;9834;48.076;11.878;2023-07-02T05:02:37;3.97;;;2.60;;
19396;SDS011;9834;48.076;11.878;2023-07-02T05:05:06;3.90;;;2.77;;
19396;SDS011;9834;48.076;11.878;2023-07-02T05:07:33;2.53;;;2.33;;
19396;SDS011;9834;48.076;11.878;2023-07-02T05:10:00;1.67;;;1.57;;
19396;SDS011;9834;48.076;11.878;2023-07-02T05:12:27;2.37;;;2.17;;
19396;SDS011;9834;48.076;11.878;2023-07-02T05:14:54;2.70;;;2.10;;
19396;SDS011;9834;48.076;11.878;2023-07-02T05:17:21;2.40;;;2.13;;
19396;SDS011;9834;48.076;11.878;2023-07-02T05:19:48;3.23;;;2.33;;
19396;SDS011;9834;48.076;11.878;2023-07-02T05:22:16;2.27;;;2.03;;
19396;SDS011;9834;48.076;11.878;2023-07-02T05:24:43;3.00;;;2.50;;
19396;SDS011;9834;48.076;11.878;2023-07-02T05:27:11;2.63;;;1.70;;
19396;SDS011;9834;48.076;11.878;2023-07-02T05:29:38;3.30;;;2.97;;
19396;SDS011;9834;48.076;11.878;2023-07-02T05:32:05;5.53;;;2.23;;
19396;SDS011;9834;48.076;11.878;2023-07-02T05:34:32;2.87;;;2.53;;
19396;SDS011;9834;48.076;11.878;2023-07-02T05:36:59;3.43;;;2.60;;
19396;SDS011;9834;48.076;11.878;2023-07-02T05:39:27;2.87;;;2.43;;
19396;SDS011;9834;48.076;11.878;2023-07-02T05:41:54;2.93;;;2.63;;
19396;SDS011;9834;48.076;11.878;2023-07-02T05:44:22;4.30;;;2.10;;
19396;SDS011;9834;48.076;11.878;2023-07-02T05:46:49;2.40;;;2.20;;
19396;SDS011;9834;48.076;11.878;2023-07-02T05:49:16;2.57;;;2.37;;
19396;SDS011;9834;48.076;11.878;2023-07-02T05:51:42;2.67;;;2.47;;
19396;SDS011;9834;48.076;11.878;2023-07-02T05:54:09;2.27;;;2.07;;
19396;SDS011;9834;48.076;11.878;2023-07-02T05:56:38;3.10;;;2.17;;
19396;SDS011;9834;48.076;11.878;2023-07-02T05:59:04;3.57;;;2.73;;
19396;SDS011;9834;48.076;11.878;2023-07-02T06:01:31;2.63;;;2.43;;
19396;SDS011;9834;48.076;11.878;2023-07-02T06:03:58;2.80;;;2.50;;
19396;SDS011;9834;48.076;11.878;2023-07-02T06:06:25;2.60;;;2.40;;
19396;SDS011;9834;48.076;11.878;2023-07-02T06:08:52;2.80;;;2.60;;
19396;SDS011;9834;48.076;11.878;2023-07-02T06:11:19;3.30;;;3.00;;
19396;SDS011;9834;48.076;11.878;2023-07-02T06:13:47;4.23;;;2.70;;
19396;SDS011;9834;48.076;11.878;2023-07-02T06:16:14;2.40;;;2.20;;
19396;SDS011;9834;48.076;11.878;2023-07-02T06:18:41;2.17;;;2.03;;
19396;SDS011;9834;48.076;11.878;2023-07-02T06:21:08;2.20;;;1.80;;
19396;SDS011;9834;48.076;11.878;2023-07-02T06:23:43;4.07;;;3.07;;
19396;SDS011;9834;48.076;11.878;2023-07-02T06:26:10;6.53;;;2.33;;
19396;SDS011;9834;48.076;11.878;2023-07-02T06:28:37;3.07;;;2.43;;
19396;SDS011;9834;48.076;11.878;2023-07-02T06:31:06;1.97;;;1.87;;
19396;SDS011;9834;48.076;11.878;2023-07-02T06:33:33;3.07;;;2.07;;
19396;SDS011;9834;48.076;11.878;2023-07-02T06:36:00;2.60;;;2.30;;
19396;SDS011;9834;48.076;11.878;2023-07-02T06:38:26;2.50;;;1.63;;
19396;SDS011;9834;48.076;11.878;2023-07-02T06:40:53;3.37;;;2.07;;
19396;SDS011;9834;48.076;11.878;2023-07-02T06:43:20;1.87;;;1.73;;
19396;SDS011;9834;48.076;11.878;2023-07-02T06:45:47;5.70;;;1.97;;
19396;SDS011;9834;48.076;11.878;2023-07-02T06:48:15;2.60;;;1.90;;
19396;SDS011;9834;48.076;11.878;2023-07-02T06:50:46;3.33;;;2.13;;
19396;SDS011;9834;48.076;11.878;2023-07-02T06:53:13;1.87;;;1.77;;
19396;SDS011;9834;48.076;11.878;2023-07-02T06:55:40;2.80;;;2.00;;
19396;SDS011;9834;48.076;11.878;2023-07-02T06:58:08;2.83;;;2.63;;
19396;SDS011;9834;48.076;11.878;2023-07-02T07:00:35;2.37;;;2.17;;
19396;SDS011;9834;48.076;11.878;2023-07-02T07:03:02;2.40;;;2.20;;
19396;SDS011;9834;48.076;11.878;2023-07-02T07:05:31;2.57;;;2.37;;
19396;SDS011;9834;48.076;11.878;2023-07-02T07:07:58;2.43;;;1.73;;
19396;SDS011;9834;48.076;11.878;2023-07-02T07:10:26;2.57;;;2.30;;
19396;SDS011;9834;48.076;11.878;2023-07-02T07:12:53;2.10;;;1.90;;
19396;SDS011;9834;48.076;11.878;2023-07-02T07:15:20;7.37;;;2.43;;
19396;SDS011;9834;48.076;11.878;2023-07-02T07:17:47;2.47;;;1.90;;
19396;SDS011;9834;48.076;11.878;2023-07-02T07:20:13;1.93;;;1.80;;
19396;SDS011;9834;48.076;11.878;2023-07-02T07:22:42;6.00;;;2.47;;
19396;SDS011;9834;48.076;11.878;2023-07-02T07:25:09;5.57;;;2.37;;
19396;SDS011;9834;48.076;11.878;2023-07-02T07:27:36;5.17;;;2.37;;
19396;SDS011;9834;48.076;11.878;2023-07-02T07:30:03;5.10;;;2.67;;
19396;SDS011;9834;48.076;11.878;2023-07-02T07:32:31;2.03;;;1.90;;
19396;SDS011;9834;48.076;11.878;2023-07-02T07:34:58;2.33;;;2.03;;
19396;SDS011;9834;48.076;11.878;2023-07-02T07:37:25;2.53;;;2.13;;
19396;SDS011;9834;48.076;11.878;2023-07-02T07:39:53;4.20;;;2.70;;
19396;SDS011;9834;48.076;11.878;2023-07-02T07:42:20;2.93;;;1.90;;
19396;SDS011;9834;48.076;11.878;2023-07-02T07:44:47;5.53;;;2.47;;
19396;SDS011;9834;48.076;11.878;2023-07-02T07:47:14;3.13;;;2.23;;
19396;SDS011;9834;48.076;11.878;2023-07-02T07:49:41;4.03;;;2.63;;
19396;SDS011;9834;48.076;11.878;2023-07-02T07:52:08;2.63;;;2.37;;
19396;SDS011;9834;48.076;11.878;2023-07-02T07:54:35;4.03;;;2.47;;
19396;SDS011;9834;48.076;11.878;2023-07-02T07:57:03;2.20;;;2.00;;
19396;SDS011;9834;48.076;11.878;2023-07-02T07:59:31;2.50;;;2.30;;
19396;SDS011;9834;48.076;11.878;2023-07-02T08:01:58;2.53;;;2.33;;
19396;SDS011;9834;48.076;11.878;2023-07-02T08:04:25;4.67;;;3.27;;
19396;SDS011;9834;48.076;11.878;2023-07-02T08:06:52;5.83;;;2.60;;
19396;SDS011;9834;48.076;11.878;2023-07-02T08:09:19;3.40;;;2.70;;
19396;SDS011;9834;48.076;11.878;2023-07-02T08:11:46;4.10;;;2.73;;
19396;SDS011;9834;48.076;11.878;2023-07-02T08:14:15;3.20;;;2.30;;
19396;SDS011;9834;48.076;11.878;2023-07-02T08:16:43;3.63;;;2.37;;
19396;SDS011;9834;48.076;11.878;2023-07-02T08:19:10;3.20;;;2.20;;
19396;SDS011;9834;48.076;11.878;2023-07-02T08:21:37;2.80;;;2.37;;
19396;SDS011;9834;48.076;11.878;2023-07-02T08:24:04;2.83;;;2.00;;
19396;SDS011;9834;48.076;11.878;2023-07-02T08:26:32;2.10;;;1.80;;
19396;SDS011;9834;48.076;11.878;2023-07-02T08:28:59;2.33;;;2.13;;
19396;SDS011;9834;48.076;11.878;2023-07-02T08:31:27;1.87;;;1.70;;
19396;SDS011;9834;48.076;11.878;2023-07-02T08:33:54;1.93;;;1.70;;
19396;SDS011;9834;48.076;11.878;2023-07-02T08:36:21;2.77;;;2.00;;
19396;SDS011;9834;48.076;11.878;2023-07-02T08:38:48;10.53;;;2.77;;
19396;SDS011;9834;48.076;11.878;2023-07-02T08:41:15;2.27;;;2.07;;
19396;SDS011;9834;48.076;11.878;2023-07-02T08:43:41;1.83;;;1.70;;
19396;SDS011;9834;48.076;11.878;2023-07-02T08:46:09;2.53;;;2.10;;
19396;SDS011;9834;48.076;11.878;2023-07-02T08:48:38;2.20;;;1.73;;
19396;SDS011;9834;48.076;11.878;2023-07-02T08:51:05;1.30;;;1.30;;
19396;SDS011;9834;48.076;11.878;2023-07-02T08:53:32;1.30;;;1.20;;
19396;SDS011;9834;48.076;11.878;2023-07-02T08:55:59;1.60;;;1.50;;
19396;SDS011;9834;48.076;11.878;2023-07-02T08:58:26;2.53;;;2.23;;
19396;SDS011;9834;48.076;11.878;2023-07-02T09:01:06;2.10;;;1.33;;
19396;SDS011;9834;48.076;11.878;2023-07-02T09:03:34;2.73;;;1.60;;
19396;SDS011;9834;48.076;11.878;2023-07-02T09:06:04;1.80;;;1.70;;
19396;SDS011;9834;48.076;11.878;2023-07-02T09:08:32;1.77;;;1.43;;
19396;SDS011;9834;48.076;11.878;2023-07-02T09:11:09;3.07;;;1.67;;
19396;SDS011;9834;48.076;11.878;2023-07-02T09:13:43;1.60;;;1.50;;
19396;SDS011;9834;48.076;11.878;2023-07-02T09:16:21;2.17;;;1.80;;
19396;SDS011;9834;48.076;11.878;2023-07-02T09:18:56;4.43;;;2.40;;
19396;SDS011;9834;48.076;11.878;2023-07-02T09:21:26;1.37;;;1.27;;
19396;SDS011;9834;48.076;11.878;2023-07-02T09:23:54;1.53;;;1.43;;
19396;SDS011;9834;48.076;11.878;2023-07-02T09:26:21;1.30;;;1.27;;
19396;SDS011;9834;48.076;11.878;2023-07-02T09:28:48;1.10;;;1.00;;
19396;SDS011;9834;48.076;11.878;2023-07-02T09:31:15;2.37;;;1.60;;
19396;SDS011;9834;48.076;11.878;2023-07-02T09:33:42;1.70;;;1.60;;
19396;SDS011;9834;48.076;11.878;2023-07-02T09:36:09;3.03;;;1.93;;
19396;SDS011;9834;48.076;11.878;2023-07-02T09:38:39;6.43;;;2.07;;
19396;SDS011;9834;48.076;11.878;2023-07-02T09:41:06;1.63;;;1.53;;
19396;SDS011;9834;48.076;11.878;2023-07-02T09:43:34;1.83;;;1.50;;
19396;SDS011;9834;48.076;11.878;2023-07-02T09:46:02;1.60;;;1.50;;
19396;SDS011;9834;48.076;11.878;2023-07-02T09:48:32;2.17;;;1.67;;
19396;SDS011;9834;48.076;11.878;2023-07-02T09:51:01;2.50;;;2.30;;
19396;SDS011;9834;48.076;11.878;2023-07-02T09:53:29;2.13;;;1.53;;
19396;SDS011;9834;48.076;11.878;2023-07-02T09:55:57;1.57;;;1.47;;
19396;SDS011;9834;48.076;11.878;2023-07-02T09:58:24;2.10;;;1.53;;
19396;SDS011;9834;48.076;11.878;2023-07-02T10:00:52;2.20;;;1.83;;
19396;SDS011;9834;48.076;11.878;2023-07-02T10:03:27;1.67;;;1.27;;
19396;SDS011;9834;48.076;11.878;2023-07-02T10:06:02;1.40;;;1.30;;
19396;SDS011;9834;48.076;11.878;2023-07-02T10:08:30;2.40;;;1.50;;
19396;SDS011;9834;48.076;11.878;2023-07-02T10:11:07;1.43;;;1.33;;
19396;SDS011;9834;48.076;11.878;2023-07-02T10:13:38;1.23;;;1.13;;
19396;SDS011;9834;48.076;11.878;2023-07-02T10:16:06;1.23;;;1.13;;
19396;SDS011;9834;48.076;11.878;2023-07-02T10:18:33;0.70;;;0.70;;
19396;SDS011;9834;48.076;11.878;2023-07-02T10:21:00;3.20;;;1.42;;
19396;SDS011;9834;48.076;11.878;2023-07-02T10:23:39;0.70;;;0.70;;
19396;SDS011;9834;48.076;11.878;2023-07-02T10:26:13;1.65;;;1.40;;
19396;SDS011;9834;48.076;11.878;2023-07-02T10:28:41;1.13;;;1.02;;
19396;SDS011;9834;48.076;11.878;2023-07-02T10:31:18;1.73;;;1.63;;
19396;SDS011;9834;48.076;11.878;2023-07-02T10:33:45;2.08;;;1.88;;
19396;SDS011;9834;48.076;11.878;2023-07-02T10:36:19;5.78;;;1.65;;
19396;SDS011;9834;48.076;11.878;2023-07-02T10:38:48;1.58;;;1.48;;
19396;SDS011;9834;48.076;11.878;2023-07-02T10:41:26;2.05;;;1.38;;
19396;SDS011;9834;48.076;11.878;2023-07-02T10:43:56;2.83;;;2.53;;
19396;SDS011;9834;48.076;11.878;2023-07-02T10:46:31;2.63;;;2.08;;
19396;SDS011;9834;48.076;11.878;2023-07-02T10:48:58;5.65;;;3.30;;
19396;SDS011;9834;48.076;11.878;2023-07-02T10:51:25;3.47;;;2.20;;
19396;SDS011;9834;48.076;11.878;2023-07-02T10:53:56;2.17;;;1.83;;
19396;SDS011;9834;48.076;11.878;2023-07-02T10:56:25;3.35;;;2.90;;
19396;SDS011;9834;48.076;11.878;2023-07-02T10:58:53;4.78;;;2.95;;
19396;SDS011;9834;48.076;11.878;2023-07-02T11:01:23;3.63;;;2.78;;
19396;SDS011;9834;48.076;11.878;2023-07-02T11:03:55;4.13;;;2.80;;
19396;SDS011;9834;48.076;11.878;2023-07-02T11:06:25;4.03;;;3.03;;
19396;SDS011;9834;48.076;11.878;2023-07-02T11:08:53;3.80;;;3.13;;
19396;SDS011;9834;48.076;11.878;2023-07-02T11:11:21;3.40;;;3.00;;
19396;SDS011;9834;48.076;11.878;2023-07-02T11:13:51;3.40;;;3.13;;
19396;SDS011;9834;48.076;11.878;2023-07-02T11:16:19;2.72;;;2.47;;
19396;SDS011;9834;48.076;11.878;2023-07-02T11:18:50;4.32;;;2.83;;
19396;SDS011;9834;48.076;11.878;2023-07-02T11:21:17;7.00;;;3.65;;
19396;SDS011;9834;48.076;11.878;2023-07-02T11:23:44;4.70;;;2.85;;
19396;SDS011;9834;48.076;11.878;2023-07-02T11:26:11;3.22;;;2.80;;
19396;SDS011;9834;48.076;11.878;2023-07-02T11:28:47;4.80;;;3.60;;
19396;SDS011;9834;48.076;11.878;2023-07-02T11:31:25;3.13;;;2.88;;
19396;SDS011;9834;48.076;11.878;2023-07-02T11:33:53;3.45;;;3.15;;
19396;SDS011;9834;48.076;11.878;2023-07-02T11:36:21;3.70;;;3.15;;
19396;SDS011;9834;48.076;11.878;2023-07-02T11:38:49;3.75;;;3.03;;
19396;SDS011;9834;48.076;11.878;2023-07-02T11:41:17;4.15;;;3.75;;
19396;SDS011;9834;48.076;11.878;2023-07-02T11:43:44;4.05;;;3.63;;
19396;SDS011;9834;48.076;11.878;2023-07-02T11:46:11;4.00;;;3.58;;
19396;SDS011;9834;48.076;11.878;2023-07-02T11:48:39;4.82;;;3.75;;
19396;SDS011;9834;48.076;11.878;2023-07-02T11:51:06;6.35;;;3.58;;
19396;SDS011;9834;48.076;11.878;2023-07-02T11:53:33;5.65;;;3.08;;
19396;SDS011;9834;48.076;11.878;2023-07-02T11:56:00;4.93;;;3.45;;
19396;SDS011;9834;48.076;11.878;2023-07-02T11:58:27;4.25;;;2.95;;
19396;SDS011;9834;48.076;11.878;2023-07-02T12:00:54;4.22;;;3.63;;
19396;SDS011;9834;48.076;11.878;2023-07-02T12:03:21;8.73;;;3.78;;
19396;SDS011;9834;48.076;11.878;2023-07-02T12:05:49;4.03;;;3.17;;
19396;SDS011;9834;48.076;11.878;2023-07-02T12:08:16;4.53;;;4.13;;
19396;SDS011;9834;48.076;11.878;2023-07-02T12:10:43;5.25;;;3.67;;
19396;SDS011;9834;48.076;11.878;2023-07-02T12:13:10;4.93;;;3.67;;
19396;SDS011;9834;48.076;11.878;2023-07-02T12:15:37;4.18;;;3.72;;
19396;SDS011;9834;48.076;11.878;2023-07-02T12:18:04;4.65;;;4.03;;
19396;SDS011;9834;48.076;11.878;2023-07-02T12:20:31;4.38;;;3.97;;
19396;SDS011;9834;48.076;11.878;2023-07-02T12:22:59;4.97;;;3.90;;
19396;SDS011;9834;48.076;11.878;2023-07-02T12:25:26;8.77;;;4.55;;
19396;SDS011;9834;48.076;11.878;2023-07-02T12:27:53;5.10;;;4.60;;
19396;SDS011;9834;48.076;11.878;2023-07-02T12:30:20;5.00;;;4.07;;
19396;SDS011;9834;48.076;11.878;2023-07-02T12:32:47;5.22;;;4.72;;
19396;SDS011;9834;48.076;11.878;2023-07-02T12:35:14;4.45;;;4.05;;
19396;SDS011;9834;48.076;11.878;2023-07-02T12:37:44;5.30;;;4.82;;
19396;SDS011;9834;48.076;11.878;2023-07-02T12:40:13;7.28;;;4.90;;
19396;SDS011;9834;48.076;11.878;2023-07-02T12:42:41;6.50;;;3.88;;
19396;SDS011;9834;48.076;11.878;2023-07-02T12:45:09;7.28;;;4.63;;
19396;SDS011;9834;48.076;11.878;2023-07-02T12:47:37;8.77;;;5.03;;
19396;SDS011;9834;48.076;11.878;2023-07-02T12:50:04;6.82;;;4.60;;
19396;SDS011;9834;48.076;11.878;2023-07-02T12:52:31;9.13;;;4.68;;
19396;SDS011;9834;48.076;11.878;2023-07-02T12:54:58;9.15;;;4.95;;
19396;SDS011;9834;48.076;11.878;2023-07-02T12:57:27;6.15;;;4.88;;
19396;SDS011;9834;48.076;11.878;2023-07-02T12:59:54;8.68;;;5.18;;
19396;SDS011;9834;48.076;11.878;2023-07-02T13:02:22;7.05;;;4.95;;
19396;SDS011;9834;48.076;11.878;2023-07-02T13:04:49;11.52;;;4.85;;
19396;SDS011;9834;48.076;11.878;2023-07-02T13:07:17;5.90;;;4.95;;
19396;SDS011;9834;48.076;11.878;2023-07-02T13:09:44;9.52;;;6.10;;
19396;SDS011;9834;48.076;11.878;2023-07-02T13:12:11;6.88;;;5.88;;
19396;SDS011;9834;48.076;11.878;2023-07-02T13:14:39;6.15;;;5.45;;
19396;SDS011;9834;48.076;11.878;2023-07-02T13:17:06;5.68;;;4.88;;
19396;SDS011;9834;48.076;11.878;2023-07-02T13:19:33;8.32;;;5.60;;
19396;SDS011;9834;48.076;11.878;2023-07-02T13:22:00;11.02;;;5.47;;
19396;SDS011;9834;48.076;11.878;2023-07-02T13:24:31;7.07;;;5.78;;
19396;SDS011;9834;48.076;11.878;2023-07-02T13:27:01;10.60;;;6.18;;
19396;SDS011;9834;48.076;11.878;2023-07-02T13:29:29;6.95;;;5.70;;
19396;SDS011;9834;48.076;11.878;2023-07-02T13:31:58;7.57;;;5.18;;
19396;SDS011;9834;48.076;11.878;2023-07-02T13:34:25;7.30;;;5.28;;
19396;SDS011;9834;48.076;11.878;2023-07-02T13:36:52;9.55;;;5.35;;
19396;SDS011;9834;48.076;11.878;2023-07-02T13:39:19;10.45;;;5.05;;
19396;SDS011;9834;48.076;11.878;2023-07-02T13:41:45;8.93;;;6.10;;
19396;SDS011;9834;48.076;11.878;2023-07-02T13:44:13;7.05;;;6.25;;
19396;SDS011;9834;48.076;11.878;2023-07-02T13:46:41;5.68;;;5.10;;
19396;SDS011;9834;48.076;11.878;2023-07-02T13:49:10;8.30;;;6.57;;
19396;SDS011;9834;48.076;11.878;2023-07-02T13:51:37;6.00;;;5.40;;
19396;SDS011;9834;48.076;11.878;2023-07-02T13:54:04;9.18;;;5.32;;
19396;SDS011;9834;48.076;11.878;2023-07-02T13:56:31;13.38;;;6.63;;
19396;SDS011;9834;48.076;11.878;2023-07-02T13:59:00;9.10;;;6.28;;
19396;SDS011;9834;48.076;11.878;2023-07-02T14:01:28;6.03;;;5.43;;
19396;SDS011;9834;48.076;11.878;2023-07-02T14:03:55;7.53;;;5.47;;
19396;SDS011;9834;48.076;11.878;2023-07-02T14:06:22;7.25;;;6.20;;
19396;SDS011;9834;48.076;11.878;2023-07-02T14:08:48;7.22;;;5.72;;
19396;SDS011;9834;48.076;11.878;2023-07-02T14:11:16;8.10;;;7.13;;
19396;SDS011;9834;48.076;11.878;2023-07-02T14:13:43;6.90;;;6.22;;
19396;SDS011;9834;48.076;11.878;2023-07-02T14:16:11;7.65;;;5.88;;
19396;SDS011;9834;48.076;11.878;2023-07-02T14:18:38;9.13;;;6.57;;
19396;SDS011;9834;48.076;11.878;2023-07-02T14:21:05;8.50;;;6.38;;
19396;SDS011;9834;48.076;11.878;2023-07-02T14:23:32;7.38;;;6.00;;
19396;SDS011;9834;48.076;11.878;2023-07-02T14:25:59;6.97;;;6.28;;
19396;SDS011;9834;48.076;11.878;2023-07-02T14:28:26;10.00;;;5.78;;
19396;SDS011;9834;48.076;11.878;2023-07-02T14:30:58;6.07;;;5.55;;
19396;SDS011;9834;48.076;11.878;2023-07-02T14:33:27;6.80;;;6.20;;
19396;SDS011;9834;48.076;11.878;2023-07-02T14:35:56;6.45;;;5.13;;
19396;SDS011;9834;48.076;11.878;2023-07-02T14:38:23;7.30;;;6.43;;
19396;SDS011;9834;48.076;11.878;2023-07-02T14:40:50;11.30;;;6.68;;
19396;SDS011;9834;48.076;11.878;2023-07-02T14:43:19;6.32;;;5.75;;
19396;SDS011;9834;48.076;11.878;2023-07-02T14:45:47;5.55;;;5.05;;
19396;SDS011;9834;48.076;11.878;2023-07-02T14:48:15;10.00;;;6.53;;
19396;SDS011;9834;48.076;11.878;2023-07-02T14:50:44;6.35;;;5.75;;
19396;SDS011;9834;48.076;11.878;2023-07-02T14:53:13;8.05;;;6.55;;